createdAt,value
2022-09-30T00:01:34.613Z,17.37
2022-09-30T00:04:03.303Z,21.13
2022-09-30T00:06:32.810Z,18.97
2022-09-30T00:09:01.713Z,16.10
2022-09-30T00:11:34.010Z,16.57
2022-09-30T00:14:03.075Z,15.27
2022-09-30T00:16:34.057Z,15.67
2022-09-30T00:19:04.323Z,16.33
2022-09-30T00:21:32.617Z,15.87
2022-09-30T00:24:00.719Z,14.40
2022-09-30T00:26:30.137Z,13.10
2022-09-30T00:28:59.509Z,13.03
2022-09-30T00:31:29.300Z,12.87
2022-09-30T00:34:11.817Z,13.40
2022-09-30T00:36:44.747Z,11.60
2022-09-30T00:39:16.318Z,11.73
2022-09-30T00:41:46.858Z,12.80
2022-09-30T00:44:46.880Z,14.20
2022-09-30T00:47:33.169Z,12.00
2022-09-30T00:50:11.162Z,13.00
2022-09-30T00:52:40.858Z,10.53
2022-09-30T00:55:16.676Z,13.47
2022-09-30T00:57:46.264Z,12.27
2022-09-30T01:00:14.297Z,12.20
2022-09-30T01:02:42.303Z,13.57
2022-09-30T01:05:11.699Z,15.23
2022-09-30T01:07:39.697Z,13.90
2022-09-30T01:10:08.756Z,12.13
2022-09-30T01:12:43.500Z,12.57
2022-09-30T01:15:15.815Z,13.37
2022-09-30T01:17:58.489Z,11.80
2022-09-30T01:20:55.496Z,12.07
2022-09-30T01:24:05.907Z,11.73
2022-09-30T01:26:56.824Z,13.33
2022-09-30T01:30:04.316Z,10.73
2022-09-30T01:33:13.069Z,9.60
2022-09-30T01:36:06.191Z,12.30
2022-09-30T01:38:48.420Z,10.03
2022-09-30T01:41:23.799Z,10.67
2022-09-30T01:44:03.062Z,12.17
2022-09-30T01:46:37.754Z,7.70
2022-09-30T01:49:15.084Z,10.17
2022-09-30T01:51:47.988Z,7.07
2022-09-30T01:54:24.619Z,7.77
2022-09-30T01:56:56.578Z,5.87
2022-09-30T01:59:29.984Z,6.40
2022-09-30T02:02:03.416Z,7.20
2022-09-30T02:04:37.381Z,7.57
2022-09-30T02:07:16.449Z,7.57
2022-09-30T02:09:51.098Z,5.70
2022-09-30T02:12:25.588Z,7.90
2022-09-30T02:15:00.191Z,7.80
2022-09-30T02:17:33.145Z,6.90
2022-09-30T02:20:13.247Z,8.47
2022-09-30T02:22:46.103Z,7.10
2022-09-30T02:25:20.517Z,9.43
2022-09-30T02:27:54.943Z,8.80
2022-09-30T02:30:23.196Z,7.23
2022-09-30T02:32:55.651Z,6.30
2022-09-30T02:35:31.743Z,6.83
2022-09-30T02:38:10.252Z,6.03
2022-09-30T02:40:43.464Z,7.70
2022-09-30T02:43:11.836Z,8.30
2022-09-30T02:45:50.270Z,6.70
2022-09-30T02:48:27.805Z,8.23
2022-09-30T02:51:04.959Z,7.53
2022-09-30T02:53:39.036Z,6.70
2022-09-30T02:56:21.074Z,8.17
2022-09-30T02:58:51.020Z,6.63
2022-09-30T03:01:19.096Z,8.33
2022-09-30T03:03:51.171Z,10.30
2022-09-30T03:06:21.145Z,8.90
2022-09-30T03:08:49.122Z,9.63
2022-09-30T03:11:19.028Z,8.10
2022-09-30T03:14:19.195Z,9.73
2022-09-30T03:17:26.579Z,9.20
2022-09-30T03:20:22.022Z,8.87
2022-09-30T03:23:05.680Z,10.50
2022-09-30T03:25:43.885Z,7.50
2022-09-30T03:28:26.133Z,6.80
2022-09-30T03:31:04.200Z,4.77
2022-09-30T03:33:39.678Z,6.50
2022-09-30T03:36:12.438Z,6.60
2022-09-30T03:38:50.067Z,5.67
2022-09-30T03:41:23.773Z,4.30
2022-09-30T03:43:57.229Z,3.30
2022-09-30T03:46:31.471Z,6.20
2022-09-30T03:49:04.119Z,4.80
2022-09-30T03:51:33.397Z,4.97
2022-09-30T03:54:02.687Z,5.40
2022-09-30T03:56:32.038Z,5.40
2022-09-30T03:59:00.457Z,5.53
2022-09-30T04:01:29.281Z,4.93
2022-09-30T04:03:57.247Z,6.43
2022-09-30T04:06:26.252Z,5.77
2022-09-30T04:08:54.847Z,6.73
2022-09-30T04:11:24.093Z,7.30
2022-09-30T04:13:51.938Z,7.33
2022-09-30T04:16:20.173Z,5.93
2022-09-30T04:18:48.188Z,5.77
2022-09-30T04:21:16.973Z,9.30
2022-09-30T04:23:44.902Z,7.27
2022-09-30T04:26:15.131Z,7.83
2022-09-30T04:28:44.734Z,8.77
2022-09-30T04:31:14.127Z,7.90
2022-09-30T04:33:42.490Z,7.20
2022-09-30T04:36:11.197Z,7.93
2022-09-30T04:38:39.349Z,9.87
2022-09-30T04:41:07.933Z,10.20
2022-09-30T04:43:36.122Z,10.77
2022-09-30T04:46:06.084Z,7.17
2022-09-30T04:48:34.048Z,12.97
2022-09-30T04:51:02.388Z,9.00
2022-09-30T04:53:30.467Z,15.30
2022-09-30T04:56:02.412Z,8.80
2022-09-30T04:58:36.849Z,9.20
2022-09-30T05:01:08.777Z,9.70
2022-09-30T05:03:37.432Z,10.83
2022-09-30T05:06:06.955Z,10.00
2022-09-30T05:08:35.551Z,11.10
2022-09-30T05:11:07.320Z,14.30
2022-09-30T05:13:36.917Z,11.10
2022-09-30T05:16:07.942Z,12.10
2022-09-30T05:18:36.385Z,12.10
2022-09-30T05:21:05.547Z,13.73
2022-09-30T05:23:33.911Z,9.47
2022-09-30T05:26:05.039Z,12.07
2022-09-30T05:28:34.450Z,16.20
2022-09-30T05:31:06.254Z,13.83
2022-09-30T05:33:36.295Z,13.83
2022-09-30T05:36:07.614Z,14.23
2022-09-30T05:38:35.682Z,15.10
2022-09-30T05:41:11.488Z,13.83
2022-09-30T05:43:40.583Z,12.47
2022-09-30T05:46:08.938Z,14.90
2022-09-30T05:48:38.167Z,13.07
2022-09-30T05:51:07.643Z,12.77
2022-09-30T05:53:38.803Z,12.57
2022-09-30T05:56:07.953Z,11.60
2022-09-30T05:58:36.872Z,13.40
2022-09-30T06:01:13.243Z,15.30
2022-09-30T06:03:43.761Z,14.83
2022-09-30T06:06:12.973Z,23.90
2022-09-30T06:08:41.366Z,19.10
2022-09-30T06:11:12.049Z,20.13
2022-09-30T06:13:40.761Z,19.60
2022-09-30T06:16:09.811Z,17.40
2022-09-30T06:18:41.667Z,16.10
2022-09-30T06:21:13.179Z,21.00
2022-09-30T06:23:41.626Z,15.83
2022-09-30T06:26:12.272Z,12.57
2022-09-30T06:28:40.384Z,14.93
2022-09-30T06:31:08.493Z,12.57
2022-09-30T06:33:36.655Z,12.00
2022-09-30T06:36:06.749Z,11.70
2022-09-30T06:38:37.217Z,13.30
2022-09-30T06:41:05.886Z,16.17
2022-09-30T06:43:43.185Z,13.07
2022-09-30T06:46:17.629Z,13.83
2022-09-30T06:48:48.462Z,16.83
2022-09-30T06:51:16.583Z,12.60
2022-09-30T06:53:48.974Z,15.30
2022-09-30T06:56:19.824Z,14.20
2022-09-30T06:58:48.107Z,16.43
2022-09-30T07:01:16.515Z,13.90
2022-09-30T07:03:47.952Z,13.30
2022-09-30T07:06:17.266Z,11.17
2022-09-30T07:08:47.544Z,17.67
2022-09-30T07:11:16.155Z,11.97
2022-09-30T07:13:46.042Z,11.27
2022-09-30T07:16:14.859Z,11.17
2022-09-30T07:18:43.614Z,7.27
2022-09-30T07:21:13.643Z,7.97
2022-09-30T07:23:45.741Z,8.03
2022-09-30T07:26:16.415Z,9.20
2022-09-30T07:28:45.010Z,6.67
2022-09-30T07:31:34.667Z,6.97
2022-09-30T07:34:04.143Z,7.17
2022-09-30T07:36:33.569Z,9.83
2022-09-30T07:39:06.163Z,8.73
2022-09-30T07:41:39.283Z,9.80
2022-09-30T07:44:14.471Z,9.60
2022-09-30T07:46:43.137Z,11.47
2022-09-30T07:49:14.837Z,8.00
2022-09-30T07:51:45.593Z,7.43
2022-09-30T07:54:17.050Z,9.50
2022-09-30T07:59:38.318Z,5.87
2022-09-30T08:02:12.286Z,6.77
2022-09-30T08:04:43.692Z,6.83
2022-09-30T08:07:13.571Z,9.57
2022-09-30T08:09:41.945Z,10.17
2022-09-30T08:12:11.658Z,8.23
2022-09-30T08:14:39.840Z,10.70
2022-09-30T08:17:07.828Z,10.13
2022-09-30T08:19:36.175Z,8.37
2022-09-30T08:22:04.475Z,9.37
2022-09-30T08:24:33.315Z,6.77
2022-09-30T08:27:01.396Z,6.83
2022-09-30T08:32:19.146Z,4.83
2022-09-30T08:34:47.186Z,6.07
2022-09-30T08:37:15.135Z,4.00
2022-09-30T08:39:43.665Z,2.90
2022-09-30T08:42:38.087Z,4.30
2022-09-30T08:45:20.253Z,4.90
2022-09-30T08:47:56.836Z,2.30
2022-09-30T08:50:34.341Z,2.40
2022-09-30T08:53:07.004Z,3.47
2022-09-30T08:55:41.339Z,3.17
2022-09-30T08:58:20.209Z,2.70
2022-09-30T09:00:51.220Z,3.37
2022-09-30T09:03:20.429Z,1.47
2022-09-30T09:05:58.207Z,2.60
2022-09-30T09:08:33.911Z,2.10
2022-09-30T09:11:08.975Z,2.90
2022-09-30T09:13:49.139Z,2.10
2022-09-30T09:16:25.426Z,2.30
2022-09-30T09:19:00.298Z,1.40
2022-09-30T09:21:41.287Z,2.87
2022-09-30T09:24:17.122Z,1.53
2022-09-30T09:26:45.308Z,1.10
2022-09-30T09:29:31.626Z,1.47
2022-09-30T09:32:01.989Z,1.63
2022-09-30T09:34:34.811Z,1.70
2022-09-30T09:37:18.096Z,4.47
2022-09-30T09:40:04.509Z,4.23
2022-09-30T09:42:44.507Z,1.50
2022-09-30T09:45:21.786Z,1.77
2022-09-30T09:47:53.778Z,2.33
2022-09-30T09:50:28.755Z,4.97
2022-09-30T09:53:11.210Z,1.77
2022-09-30T09:55:39.515Z,2.13
2022-09-30T09:58:10.261Z,1.87
2022-09-30T10:00:57.979Z,2.40
2022-09-30T10:03:28.610Z,2.80
2022-09-30T10:06:06.301Z,2.03
2022-09-30T10:08:36.669Z,1.37
2022-09-30T10:11:06.603Z,2.33
2022-09-30T10:13:42.813Z,1.20
2022-09-30T10:16:28.462Z,2.93
2022-09-30T10:18:58.417Z,2.13
2022-09-30T10:21:28.586Z,4.65
2022-09-30T10:23:57.560Z,2.95
2022-09-30T10:29:01.296Z,1.85
2022-09-30T10:31:32.562Z,1.90
2022-09-30T10:34:09.592Z,4.03
2022-09-30T10:36:49.325Z,1.30
2022-09-30T10:39:23.994Z,1.73
2022-09-30T10:41:55.101Z,2.60
2022-09-30T10:44:25.012Z,1.30
2022-09-30T10:46:54.460Z,1.90
2022-09-30T10:49:29.738Z,1.40
2022-09-30T10:51:58.418Z,1.37
2022-09-30T10:54:44.583Z,1.80
2022-09-30T10:57:17.564Z,1.15
2022-09-30T10:59:47.841Z,1.20
2022-09-30T11:02:27.750Z,1.17
2022-09-30T11:05:05.646Z,2.57
2022-09-30T11:07:40.658Z,1.27
2022-09-30T11:10:19.863Z,1.43
2022-09-30T11:12:53.290Z,3.33
2022-09-30T11:15:27.674Z,2.90
2022-09-30T11:18:01.241Z,1.33
2022-09-30T11:20:36.358Z,2.30
2022-09-30T11:23:13.283Z,1.80
2022-09-30T11:25:46.186Z,1.63
2022-09-30T11:28:38.775Z,1.70
2022-09-30T11:31:17.146Z,2.23
2022-09-30T11:34:00.038Z,2.80
2022-09-30T11:36:37.990Z,2.30
2022-09-30T11:39:37.655Z,1.80
2022-09-30T11:42:15.168Z,1.90
2022-09-30T11:44:45.882Z,4.73
2022-09-30T11:47:35.284Z,2.20
2022-09-30T11:50:23.749Z,2.23
2022-09-30T11:53:06.906Z,5.20
2022-09-30T11:55:57.644Z,2.60
2022-09-30T11:58:46.036Z,4.00
2022-09-30T12:01:23.376Z,2.90
2022-09-30T12:04:01.400Z,2.10
2022-09-30T12:06:34.772Z,2.13
2022-09-30T12:09:15.492Z,1.87
2022-09-30T12:11:50.192Z,1.57
2022-09-30T12:14:25.639Z,4.10
2022-09-30T12:16:56.637Z,2.55
2022-09-30T12:19:31.203Z,1.60
2022-09-30T12:22:06.763Z,2.13
2022-09-30T12:24:38.553Z,2.20
2022-09-30T12:27:13.971Z,2.07
2022-09-30T12:30:05.863Z,3.00
2022-09-30T12:33:07.088Z,1.73
2022-09-30T12:36:06.434Z,1.23
2022-09-30T12:38:51.195Z,1.17
2022-09-30T12:41:51.536Z,1.60
2022-09-30T12:44:51.355Z,2.17
2022-09-30T12:47:34.074Z,3.17
2022-09-30T12:50:07.671Z,2.93
2022-09-30T12:52:38.512Z,1.50
2022-09-30T12:55:19.889Z,1.87
2022-09-30T12:57:52.207Z,2.70
2022-09-30T13:00:22.557Z,2.57
2022-09-30T13:02:56.672Z,1.60
2022-09-30T13:05:49.853Z,1.67
2022-09-30T13:08:32.666Z,2.80
2022-09-30T13:11:05.971Z,1.43
2022-09-30T13:13:37.151Z,2.00
2022-09-30T13:16:06.957Z,3.07
2022-09-30T13:19:01.032Z,2.00
2022-09-30T13:21:31.989Z,3.00
2022-09-30T13:24:02.342Z,2.03
2022-09-30T13:27:07.270Z,3.13
2022-09-30T13:29:40.046Z,2.50
2022-09-30T13:32:10.460Z,2.80
2022-09-30T13:34:57.357Z,1.87
2022-09-30T13:38:09.352Z,2.70
2022-09-30T13:41:00.753Z,1.40
2022-09-30T13:43:35.231Z,2.50
2022-09-30T13:46:12.401Z,2.30
2022-09-30T13:48:46.227Z,1.83
2022-09-30T13:51:17.353Z,1.77
2022-09-30T13:53:51.305Z,1.90
2022-09-30T13:56:22.312Z,3.10
2022-09-30T13:59:20.222Z,4.10
2022-09-30T14:02:21.447Z,2.00
2022-09-30T14:05:04.841Z,1.70
2022-09-30T14:07:43.337Z,2.50
2022-09-30T14:10:32.156Z,2.13
2022-09-30T14:13:16.174Z,1.88
2022-09-30T14:16:07.826Z,1.70
2022-09-30T14:19:09.633Z,2.30
2022-09-30T14:21:40.413Z,3.50
2022-09-30T14:24:14.181Z,1.87
2022-09-30T14:27:15.808Z,1.50
2022-09-30T14:29:53.725Z,2.00
2022-09-30T14:32:29.034Z,1.53
2022-09-30T14:34:59.999Z,2.07
2022-09-30T14:37:30.991Z,2.03
2022-09-30T14:39:59.445Z,2.27
2022-09-30T14:42:32.005Z,2.07
2022-09-30T14:45:04.564Z,2.43
2022-09-30T14:47:35.552Z,1.57
2022-09-30T14:50:10.162Z,1.80
2022-09-30T14:52:43.122Z,2.08
2022-09-30T14:55:26.794Z,2.27
2022-09-30T14:57:56.182Z,2.13
2022-09-30T15:00:29.884Z,2.03
2022-09-30T15:02:59.272Z,1.87
2022-09-30T15:05:29.546Z,3.20
2022-09-30T15:07:57.634Z,2.67
2022-09-30T15:10:26.737Z,1.63
2022-09-30T15:12:56.009Z,1.97
2022-09-30T15:15:35.148Z,1.93
2022-09-30T15:18:28.731Z,3.77
2022-09-30T15:21:00.478Z,1.97
2022-09-30T15:23:30.790Z,2.10
2022-09-30T15:26:00.089Z,2.53
2022-09-30T15:28:28.289Z,2.63
2022-09-30T15:30:59.550Z,1.40
2022-09-30T15:33:31.984Z,3.20
2022-09-30T15:36:07.302Z,1.93
2022-09-30T15:38:38.852Z,3.63
2022-09-30T15:41:09.120Z,2.13
2022-09-30T15:43:41.117Z,2.30
2022-09-30T15:46:28.074Z,3.73
2022-09-30T15:48:58.594Z,1.87
2022-09-30T15:51:34.560Z,2.03
2022-09-30T15:54:17.520Z,3.83
2022-09-30T15:56:46.604Z,2.77
2022-09-30T15:59:15.838Z,2.10
2022-09-30T16:01:46.855Z,2.10
2022-09-30T16:04:26.211Z,3.40
2022-09-30T16:06:59.306Z,4.47
2022-09-30T16:09:31.529Z,2.10
2022-09-30T16:12:06.461Z,2.50
2022-09-30T16:14:41.598Z,3.87
2022-09-30T16:17:18.777Z,4.00
2022-09-30T16:19:52.844Z,2.83
2022-09-30T16:22:53.450Z,3.17
2022-09-30T16:25:24.267Z,3.63
2022-09-30T16:27:57.615Z,3.87
2022-09-30T16:30:26.081Z,4.47
2022-09-30T16:32:58.344Z,2.97
2022-09-30T16:35:28.001Z,2.60
2022-09-30T16:38:02.325Z,3.63
2022-09-30T16:40:32.132Z,4.53
2022-09-30T16:43:03.216Z,2.77
2022-09-30T16:45:34.110Z,2.90
2022-09-30T16:48:03.351Z,4.93
2022-09-30T16:50:38.697Z,2.57
2022-09-30T16:53:09.858Z,2.87
2022-09-30T16:55:38.495Z,4.10
2022-09-30T16:58:06.650Z,3.00
2022-09-30T17:00:35.155Z,3.10
2022-09-30T17:03:03.228Z,2.93
2022-09-30T17:05:31.153Z,2.90
2022-09-30T17:08:00.316Z,2.47
2022-09-30T17:10:31.594Z,3.17
2022-09-30T17:13:01.328Z,2.53
2022-09-30T17:15:30.439Z,4.33
2022-09-30T17:17:58.558Z,2.47
2022-09-30T17:20:27.409Z,2.60
2022-09-30T17:22:55.382Z,2.63
2022-09-30T17:25:23.216Z,2.37
2022-09-30T17:27:52.634Z,3.77
2022-09-30T17:30:21.300Z,2.93
2022-09-30T17:32:49.435Z,4.63
2022-09-30T17:35:17.441Z,2.60
2022-09-30T17:37:46.661Z,3.50
2022-09-30T17:40:32.344Z,3.93
2022-09-30T17:43:14.080Z,3.60
2022-09-30T17:45:44.185Z,3.17
2022-09-30T17:48:12.948Z,4.70
2022-09-30T17:50:42.315Z,2.67
2022-09-30T17:53:13.465Z,3.50
2022-09-30T17:55:42.095Z,3.47
2022-09-30T17:58:12.405Z,5.97
2022-09-30T18:00:40.895Z,4.57
2022-09-30T18:03:09.811Z,3.30
2022-09-30T18:05:38.223Z,4.77
2022-09-30T18:08:06.489Z,5.03
2022-09-30T18:10:37.295Z,4.20
2022-09-30T18:13:05.250Z,5.53
2022-09-30T18:15:35.211Z,3.77
2022-09-30T18:18:03.051Z,3.87
2022-09-30T18:20:30.998Z,2.90
2022-09-30T18:22:58.892Z,3.53
2022-09-30T18:25:27.225Z,3.80
2022-09-30T18:27:58.808Z,4.73
2022-09-30T18:30:27.794Z,4.60
2022-09-30T18:32:59.310Z,5.23
2022-09-30T18:35:27.789Z,5.33
2022-09-30T18:37:55.716Z,5.23
2022-09-30T18:40:26.021Z,6.10
2022-09-30T18:42:58.377Z,6.50
2022-09-30T18:45:26.644Z,4.13
2022-09-30T18:47:57.806Z,5.00
2022-09-30T18:50:27.089Z,5.73
2022-09-30T18:52:55.442Z,4.17
2022-09-30T18:55:23.903Z,4.50
2022-09-30T18:57:54.880Z,4.90
2022-09-30T19:00:23.417Z,5.13
2022-09-30T19:02:53.223Z,4.20
2022-09-30T19:05:22.544Z,4.10
2022-09-30T19:07:50.526Z,6.13
2022-09-30T19:10:18.836Z,6.97
2022-09-30T19:12:46.699Z,4.53
2022-09-30T19:15:16.312Z,5.17
2022-09-30T19:17:44.398Z,5.43
2022-09-30T19:20:14.047Z,5.23
2022-09-30T19:22:43.469Z,5.13
2022-09-30T19:25:12.741Z,4.90
2022-09-30T19:27:42.425Z,9.13
2022-09-30T19:30:14.099Z,3.87
2022-09-30T19:32:42.074Z,4.53
2022-09-30T19:35:12.418Z,4.90
2022-09-30T19:37:46.332Z,5.50
2022-09-30T19:40:22.177Z,8.33
2022-09-30T19:42:51.294Z,4.73
2022-09-30T19:45:24.219Z,5.87
2022-09-30T19:47:53.076Z,6.17
2022-09-30T19:50:21.065Z,6.57
2022-09-30T19:52:56.686Z,7.00
2022-09-30T19:55:27.519Z,8.10
2022-09-30T19:57:55.477Z,7.67
2022-09-30T20:00:23.305Z,4.90
2022-09-30T20:02:52.329Z,6.30
2022-09-30T20:05:20.644Z,5.83
2022-09-30T20:07:50.948Z,5.90
2022-09-30T20:10:19.565Z,5.63
2022-09-30T20:12:48.754Z,6.27
2022-09-30T20:15:34.052Z,10.70
2022-09-30T20:18:01.923Z,5.90
2022-09-30T20:20:36.708Z,7.03
2022-09-30T20:23:04.663Z,9.97
2022-09-30T20:25:32.622Z,6.40
2022-09-30T20:28:03.935Z,6.53
2022-09-30T20:30:32.301Z,7.60
2022-09-30T20:33:01.799Z,11.90
2022-09-30T20:35:29.788Z,6.57
2022-09-30T20:37:57.626Z,5.37
2022-09-30T20:40:25.526Z,6.00
2022-09-30T20:42:55.195Z,6.13
2022-09-30T20:45:27.675Z,8.67
2022-09-30T20:47:56.381Z,10.73
2022-09-30T20:50:35.730Z,8.83
2022-09-30T20:53:09.590Z,4.77
2022-09-30T20:55:39.490Z,9.23
2022-09-30T20:58:09.021Z,7.40
2022-09-30T21:00:40.167Z,7.37
2022-09-30T21:03:09.519Z,6.53
2022-09-30T21:05:38.210Z,6.07
2022-09-30T21:08:07.203Z,7.90
2022-09-30T21:10:36.870Z,8.13
2022-09-30T21:13:10.174Z,8.30
2022-09-30T21:15:39.807Z,5.90
2022-09-30T21:18:08.198Z,6.23
2022-09-30T21:20:36.282Z,7.20
2022-09-30T21:23:04.372Z,7.23
2022-09-30T21:25:32.424Z,7.73
2022-09-30T21:28:00.502Z,7.03
2022-09-30T21:30:28.864Z,8.43
2022-09-30T21:32:58.103Z,8.47
2022-09-30T21:35:26.147Z,7.93
2022-09-30T21:37:53.979Z,8.47
2022-09-30T21:40:22.181Z,8.80
2022-09-30T21:42:50.019Z,8.00
2022-09-30T21:45:19.939Z,7.00
2022-09-30T21:47:47.927Z,8.80
2022-09-30T21:50:17.464Z,10.10
2022-09-30T21:52:45.372Z,9.27
2022-09-30T21:55:13.665Z,9.10
2022-09-30T21:57:41.511Z,7.30
2022-09-30T22:00:10.919Z,6.43
2022-09-30T22:02:38.941Z,7.47
2022-09-30T22:05:07.466Z,11.87
2022-09-30T22:07:37.280Z,8.30
2022-09-30T22:10:05.789Z,8.83
2022-09-30T22:12:33.781Z,9.07
2022-09-30T22:15:01.633Z,9.50
2022-09-30T22:17:29.603Z,7.80
2022-09-30T22:19:57.707Z,7.90
2022-09-30T22:22:25.938Z,10.10
2022-09-30T22:24:55.333Z,8.87
2022-09-30T22:27:23.453Z,8.17
2022-09-30T22:29:51.292Z,8.70
2022-09-30T22:32:19.265Z,7.50
2022-09-30T22:35:04.794Z,8.77
2022-09-30T22:38:01.846Z,8.50
2022-09-30T22:40:31.444Z,8.00
2022-09-30T22:42:59.300Z,7.57
2022-09-30T22:45:27.142Z,8.47
2022-09-30T22:47:56.915Z,6.63
2022-09-30T22:50:26.100Z,6.43
2022-09-30T22:52:53.973Z,7.37
2022-09-30T22:55:22.273Z,9.53
2022-09-30T22:57:51.534Z,7.87
2022-09-30T23:00:19.511Z,7.33
2022-09-30T23:02:48.353Z,7.13
2022-09-30T23:05:16.294Z,8.40
2022-09-30T23:07:44.131Z,9.70
2022-09-30T23:10:12.159Z,5.27
2022-09-30T23:12:40.916Z,6.93
2022-09-30T23:15:11.062Z,6.47
2022-09-30T23:17:39.071Z,6.13
2022-09-30T23:20:08.622Z,7.50
2022-09-30T23:22:37.089Z,7.20
2022-09-30T23:25:05.543Z,9.00
2022-09-30T23:27:33.482Z,9.05
2022-09-30T23:30:01.411Z,5.70
2022-09-30T23:32:30.659Z,6.73
2022-09-30T23:34:58.602Z,8.33
2022-09-30T23:37:26.563Z,9.37
2022-09-30T23:39:54.370Z,6.60
2022-09-30T23:42:22.207Z,6.87
2022-09-30T23:44:50.207Z,7.57
2022-09-30T23:47:21.339Z,5.93
2022-09-30T23:49:50.964Z,6.67
2022-09-30T23:52:18.789Z,9.50
2022-09-30T23:54:46.913Z,6.90
2022-09-30T23:57:14.895Z,5.70
2022-09-30T23:59:42.718Z,8.00
